Time;durP1;ratioP1;P1;durP2;ratioP2;P2;SDS_P1;SDS_P2;PMS_P1;PMS_P2;Temp;Humidity;BMP_temperature;BMP_pressure;BME280_temperature;BME280_humidity;BME280_pressure;Samples;Min_cycle;Max_cycle;Signal;HPM_P1;HPM_P2
2022/09/11 00:01:42;;;;;;;13.38;5.70;;;;;;;23.80;100.00;99793.50;4957096;28;20236;-78
2022/09/11 00:04:10;;;;;;;6.40;5.30;;;;;;;23.71;100.00;99792.16;4991643;28;20205;-78
2022/09/11 00:06:37;;;;;;;7.07;5.88;;;;;;;23.48;100.00;99794.91;4991820;28;20622;-75
2022/09/11 00:09:06;;;;;;;9.38;5.03;;;;;;;23.52;100.00;99791.19;4991232;28;20320;-77
2022/09/11 00:11:34;;;;;;;8.70;5.20;;;;;;;23.51;100.00;99794.75;4956675;28;20228;-78
2022/09/11 00:14:01;;;;;;;5.50;5.00;;;;;;;23.34;100.00;99802.53;4991878;28;20201;-77
2022/09/11 00:16:32;;;;;;;7.40;5.43;;;;;;;23.43;100.00;99786.31;4991454;28;20625;-78
2022/09/11 00:19:01;;;;;;;6.45;5.50;;;;;;;23.44;100.00;99804.75;4991217;28;20673;-78
2022/09/11 00:21:29;;;;;;;7.13;5.13;;;;;;;23.22;100.00;99791.50;4991421;28;20583;-79
2022/09/11 00:23:56;;;;;;;10.05;5.90;;;;;;;23.19;100.00;99794.28;4991591;28;20300;-79
2022/09/11 00:26:24;;;;;;;8.40;4.25;;;;;;;23.06;100.00;99763.13;4991737;28;20677;-79
2022/09/11 00:28:51;;;;;;;5.80;4.03;;;;;;;22.85;100.00;99758.72;4991240;28;20280;-78
2022/09/11 00:31:20;;;;;;;4.13;3.80;;;;;;;23.07;100.00;99783.38;4991334;28;20220;-77
2022/09/11 00:33:50;;;;;;;7.18;5.28;;;;;;;23.13;100.00;99783.09;4990996;28;20207;-79
2022/09/11 00:36:19;;;;;;;6.55;5.30;;;;;;;23.10;100.00;99775.31;4990681;28;20206;-78
2022/09/11 00:38:47;;;;;;;6.72;5.00;;;;;;;22.96;100.00;99754.72;4991498;28;20256;-77
2022/09/11 00:41:16;;;;;;;7.57;5.55;;;;;;;23.09;100.00;99766.50;4957006;28;20205;-78
2022/09/11 00:43:55;;;;;;;7.15;5.07;;;;;;;23.15;100.00;99778.63;4991329;28;20215;-78
2022/09/11 00:46:25;;;;;;;7.65;4.80;;;;;;;23.17;100.00;99768.84;4990995;28;20894;-78
2022/09/11 00:48:56;;;;;;;7.25;5.45;;;;;;;23.13;100.00;99772.53;4991300;28;20558;-78
2022/09/11 00:51:26;;;;;;;5.72;5.22;;;;;;;23.26;100.00;99767.59;4982264;28;20223;-78
2022/09/11 00:53:57;;;;;;;10.48;5.20;;;;;;;23.20;100.00;99769.56;4953698;28;20639;-78
2022/09/11 00:56:27;;;;;;;8.77;5.32;;;;;;;23.07;100.00;99768.38;4985775;28;20210;-77
2022/09/11 00:58:55;;;;;;;5.38;4.78;;;;;;;23.16;100.00;99778.56;4988468;28;20234;-78
2022/09/11 01:01:22;;;;;;;4.47;4.05;;;;;;;23.00;100.00;99780.13;4957004;28;20253;-78
2022/09/11 01:03:49;;;;;;;5.47;4.93;;;;;;;23.01;100.00;99771.25;4987582;28;20686;-77
2022/09/11 01:06:19;;;;;;;11.82;4.38;;;;;;;22.95;100.00;99776.78;4994334;28;20248;-78
2022/09/11 01:08:46;;;;;;;8.73;4.93;;;;;;;22.91;100.00;99775.19;4992001;28;20253;-78
2022/09/11 01:11:31;;;;;;;4.47;4.07;;;;;;;23.08;100.00;99785.94;4994890;28;20225;-78
2022/09/11 01:14:10;;;;;;;8.00;5.15;;;;;;;22.75;100.00;99745.00;4994500;28;20197;-76
2022/09/11 01:16:43;;;;;;;7.18;4.90;;;;;;;22.92;100.00;99774.28;4979009;28;20228;-78
2022/09/11 01:19:26;;;;;;;9.57;5.22;;;;;;;22.78;100.00;99750.16;4994589;28;20198;-78
2022/09/11 01:22:30;;;;;;;5.45;4.93;;;;;;;22.88;100.00;99763.88;4995108;28;20197;-78
2022/09/11 01:25:09;;;;;;;5.95;5.03;;;;;;;22.77;100.00;99766.94;4985241;28;20377;-78
2022/09/11 01:27:43;;;;;;;6.28;5.05;;;;;;;22.77;100.00;99766.94;4994020;28;20229;-77
2022/09/11 01:30:13;;;;;;;7.40;4.63;;;;;;;22.59;100.00;99757.06;4994249;28;20236;-78
2022/09/11 01:32:59;;;;;;;8.23;4.90;;;;;;;22.65;100.00;99760.31;4993139;28;20197;-79
2022/09/11 01:35:35;;;;;;;7.18;4.50;;;;;;;22.66;100.00;99766.47;4933778;29;20242;-78
2022/09/11 01:38:06;;;;;;;5.07;4.57;;;;;;;22.70;100.00;99768.97;4934039;29;20207;-78
2022/09/11 01:40:39;;;;;;;4.90;4.50;;;;;;;22.51;100.00;99746.78;4933743;29;20200;-78
2022/09/11 01:43:13;;;;;;;9.43;4.82;;;;;;;22.63;100.00;99761.31;4934035;29;20227;-77
2022/09/11 01:45:43;;;;;;;5.18;4.53;;;;;;;22.42;100.00;99741.00;4933662;29;20215;-78
2022/09/11 01:48:14;;;;;;;7.30;4.53;;;;;;;22.56;100.00;99762.47;4933769;29;20215;-77
2022/09/11 01:50:46;;;;;;;10.02;5.05;;;;;;;22.59;100.00;99760.56;4933373;29;20231;-77
2022/09/11 01:53:17;;;;;;;8.23;4.50;;;;;;;22.50;100.00;99760.94;4917337;29;20200;-77
2022/09/11 01:55:48;;;;;;;5.60;4.82;;;;;;;22.40;100.00;99754.25;4933456;29;20208;-78
2022/09/11 01:58:22;;;;;;;5.57;3.85;;;;;;;22.47;100.00;99749.63;4933546;29;20207;-77
2022/09/11 02:00:54;;;;;;;8.43;4.88;;;;;;;22.27;100.00;99737.16;4933003;29;20644;-78
2022/09/11 02:03:25;;;;;;;7.32;5.15;;;;;;;22.33;100.00;99760.69;4933816;29;20984;-78
2022/09/11 02:05:58;;;;;;;9.23;4.90;;;;;;;22.18;100.00;99737.53;4933480;29;20266;-78
2022/09/11 02:08:30;;;;;;;6.15;4.18;;;;;;;22.35;100.00;99760.66;4916967;29;20289;-78
2022/09/11 02:11:03;;;;;;;4.45;4.05;;;;;;;22.42;100.00;99759.50;4933464;29;20235;-77
2022/09/11 02:13:35;;;;;;;4.65;4.25;;;;;;;21.85;100.00;99686.81;4982233;28;20670;-78
2022/09/11 02:16:08;;;;;;;5.05;4.07;;;;;;;22.31;100.00;99761.69;4993595;28;20205;-77
2022/09/11 02:18:41;;;;;;;5.47;4.82;;;;;;;22.32;100.00;99744.91;4993200;28;20213;-78
2022/09/11 02:21:09;;;;;;;7.97;4.55;;;;;;;22.24;100.00;99764.56;4991116;28;20205;-78
2022/09/11 02:23:35;;;;;;;5.70;4.45;;;;;;;21.99;100.00;99736.47;4993376;28;20280;-77
2022/09/11 02:26:04;;;;;;;6.35;3.47;;;;;;;22.12;100.00;99756.22;4992857;28;20692;-78
2022/09/11 02:28:32;;;;;;;5.43;2.85;;;;;;;22.06;100.00;99753.81;4992659;28;20202;-79
2022/09/11 02:31:02;;;;;;;4.78;4.35;;;;;;;22.19;100.00;99753.28;4990439;28;20665;-79
2022/09/11 02:33:31;;;;;;;7.47;4.72;;;;;;;22.22;100.00;99761.09;4958491;28;20236;-79
2022/09/11 02:36:21;;;;;;;7.35;4.43;;;;;;;22.16;100.00;99745.50;4993079;28;20550;-78
2022/09/11 02:39:03;;;;;;;6.85;4.10;;;;;;;22.13;100.00;99758.81;4983292;28;20650;-78
2022/09/11 02:41:38;;;;;;;7.88;4.72;;;;;;;22.12;100.00;99758.84;4957501;28;20225;-78
2022/09/11 02:44:13;;;;;;;4.93;4.20;;;;;;;22.17;100.00;99768.34;4992957;28;20201;-79
2022/09/11 02:46:55;;;;;;;4.80;3.90;;;;;;;22.22;100.00;99771.66;4991763;28;20220;-78
2022/09/11 02:49:31;;;;;;;3.90;3.60;;;;;;;22.12;100.00;99759.72;4992965;28;20276;-78
2022/09/11 02:52:05;;;;;;;4.32;3.60;;;;;;;22.09;100.00;99751.91;4991767;28;20233;-78
2022/09/11 02:54:40;;;;;;;6.15;4.07;;;;;;;22.19;100.00;99765.63;4974536;28;20284;-78
2022/09/11 02:57:13;;;;;;;4.70;3.72;;;;;;;22.18;100.00;99767.44;4992727;28;20193;-78
2022/09/11 02:59:47;;;;;;;7.10;4.07;;;;;;;22.10;100.00;99769.50;4993390;28;20201;-77
2022/09/11 03:02:15;;;;;;;5.40;4.25;;;;;;;22.08;100.00;99757.28;4992778;28;20204;-79
2022/09/11 03:04:42;;;;;;;5.43;3.83;;;;;;;21.96;100.00;99763.00;4993012;28;20205;-78
2022/09/11 03:07:09;;;;;;;7.30;4.20;;;;;;;21.97;100.00;99768.25;4992304;28;20205;-78
2022/09/11 03:09:36;;;;;;;6.15;3.70;;;;;;;21.89;100.00;99767.63;4992512;28;20209;-79
2022/09/11 03:12:03;;;;;;;5.65;3.90;;;;;;;21.91;100.00;99776.34;4991243;28;20233;-78
2022/09/11 03:14:31;;;;;;;5.45;4.07;;;;;;;21.89;100.00;99770.25;4989680;28;20197;-77
2022/09/11 03:16:59;;;;;;;5.57;3.40;;;;;;;21.91;100.00;99768.44;4992270;28;20281;-77
2022/09/11 03:19:25;;;;;;;6.68;4.00;;;;;;;21.82;100.00;99771.38;4991036;28;20743;-78
2022/09/11 03:21:52;;;;;;;4.18;3.78;;;;;;;21.73;100.00;99771.69;4992728;28;20263;-78
2022/09/11 03:24:19;;;;;;;7.05;3.55;;;;;;;21.80;100.00;99778.47;4992478;28;20200;-77
2022/09/11 03:26:46;;;;;;;5.18;3.75;;;;;;;21.67;100.00;99772.78;4992483;28;20275;-77
2022/09/11 03:29:13;;;;;;;4.28;3.40;;;;;;;21.66;100.00;99771.06;4992325;28;20209;-78
2022/09/11 03:31:40;;;;;;;4.70;3.70;;;;;;;21.62;100.00;99776.47;4976134;28;20225;-78
2022/09/11 03:34:09;;;;;;;3.95;3.65;;;;;;;21.69;100.00;99756.88;4991649;28;20206;-78
2022/09/11 03:36:36;;;;;;;4.13;3.20;;;;;;;21.71;100.00;99778.81;4992283;28;20293;-78
2022/09/11 03:39:04;;;;;;;3.70;3.40;;;;;;;21.70;100.00;99766.53;4992591;28;20197;-77
2022/09/11 03:41:31;;;;;;;4.38;4.00;;;;;;;21.73;100.00;99782.25;4991902;28;20611;-77
2022/09/11 03:43:58;;;;;;;6.00;4.28;;;;;;;21.64;100.00;99767.63;4991727;28;20197;-77
2022/09/11 03:46:25;;;;;;;6.00;3.63;;;;;;;21.67;100.00;99785.13;4991469;28;20212;-78
2022/09/11 03:48:52;;;;;;;3.50;3.20;;;;;;;21.58;100.00;99793.38;4991510;28;20206;-77
2022/09/11 03:51:20;;;;;;;4.07;3.60;;;;;;;21.76;100.00;99797.97;4991567;28;20226;-77
2022/09/11 03:53:47;;;;;;;11.70;3.83;;;;;;;21.55;100.00;99785.53;4991425;28;20260;-77
2022/09/11 03:56:14;;;;;;;5.28;3.50;;;;;;;21.58;100.00;99788.09;4980494;28;20289;-77
2022/09/11 03:58:42;;;;;;;4.40;3.75;;;;;;;21.64;100.00;99794.00;4991539;28;20221;-78
2022/09/11 04:01:11;;;;;;;5.90;3.20;;;;;;;21.66;100.00;99797.44;4990824;28;20215;-78
2022/09/11 04:03:38;;;;;;;4.78;3.55;;;;;;;21.70;100.00;99792.91;4991526;28;20753;-77
2022/09/11 04:06:05;;;;;;;3.55;3.25;;;;;;;21.59;100.00;99768.69;4991539;28;20264;-76
2022/09/11 04:08:34;;;;;;;3.85;3.55;;;;;;;21.79;100.00;99786.47;4992072;28;20234;-78
2022/09/11 04:11:02;;;;;;;5.55;3.40;;;;;;;21.84;100.00;99800.34;4991550;28;20236;-78
2022/09/11 04:13:29;;;;;;;5.65;3.28;;;;;;;21.79;100.00;99808.47;4991795;28;20197;-78
2022/09/11 04:15:59;;;;;;;14.95;3.97;;;;;;;21.76;100.00;99783.00;4991180;28;20229;-78
2022/09/11 04:18:26;;;;;;;3.45;3.00;;;;;;;21.83;100.00;99804.75;4984010;28;20233;-78
2022/09/11 04:20:53;;;;;;;4.90;3.40;;;;;;;21.90;100.00;99794.88;4991328;28;20217;-75
2022/09/11 04:23:20;;;;;;;3.50;3.17;;;;;;;21.98;100.00;99803.38;4991326;28;20787;-77
2022/09/11 04:25:48;;;;;;;3.75;3.45;;;;;;;22.13;100.00;99816.06;4991175;28;20658;-73
2022/09/11 04:28:15;;;;;;;4.68;3.60;;;;;;;22.22;100.00;99813.94;4991427;28;20197;-76
2022/09/11 04:30:42;;;;;;;7.38;3.55;;;;;;;22.17;100.00;99818.53;4992035;28;20225;-76
2022/09/11 04:33:08;;;;;;;6.43;2.97;;;;;;;22.15;100.00;99812.44;4995955;28;20198;-78
2022/09/11 04:35:37;;;;;;;5.00;3.20;;;;;;;22.53;100.00;99795.16;4995577;28;20209;-78
2022/09/11 04:38:04;;;;;;;8.25;2.85;;;;;;;22.93;100.00;99818.31;4995596;28;20205;-78
2022/09/11 04:40:32;;;;;;;6.63;3.28;;;;;;;23.27;100.00;99822.22;4995657;28;20204;-77
2022/09/11 04:43:01;;;;;;;11.32;3.50;;;;;;;23.42;100.00;99821.63;4995204;28;20685;-77
2022/09/11 04:45:32;;;;;;;3.40;3.20;;;;;;;23.36;100.00;99822.72;4995350;28;20255;-77
2022/09/11 04:47:59;;;;;;;4.68;3.20;;;;;;;23.60;100.00;99804.97;4994724;28;20206;-77
2022/09/11 04:50:27;;;;;;;5.72;3.00;;;;;;;23.95;100.00;99830.78;4995204;28;20209;-78
2022/09/11 04:52:54;;;;;;;3.38;3.17;;;;;;;24.03;100.00;99820.72;4995121;28;20212;-78
2022/09/11 04:55:21;;;;;;;3.10;2.90;;;;;;;24.12;100.00;99836.22;4995566;28;20205;-78
2022/09/11 04:57:47;;;;;;;2.90;2.70;;;;;;;24.38;100.00;99837.72;4997844;28;20314;-75
2022/09/11 05:00:16;;;;;;;7.00;3.13;;;;;;;24.31;100.00;99830.13;4992552;28;20232;-76
2022/09/11 05:02:43;;;;;;;6.93;2.92;;;;;;;23.85;100.00;99826.84;4994356;28;20209;-76
2022/09/11 05:05:11;;;;;;;7.45;3.67;;;;;;;24.02;100.00;99828.75;4994081;28;20208;-76
2022/09/11 05:07:38;;;;;;;5.20;2.80;;;;;;;23.85;100.00;99816.25;4993704;28;20235;-76
2022/09/11 05:10:06;;;;;;;5.55;2.83;;;;;;;23.69;100.00;99828.41;4958315;28;20272;-76
2022/09/11 05:12:33;;;;;;;7.20;3.60;;;;;;;23.48;100.00;99816.06;4992369;28;20268;-75
2022/09/11 05:15:00;;;;;;;3.83;3.20;;;;;;;23.27;100.00;99827.50;4958312;28;20213;-76
2022/09/11 05:17:28;;;;;;;4.38;2.92;;;;;;;23.20;100.00;99825.13;4992836;28;20206;-76
2022/09/11 05:19:54;;;;;;;4.68;3.83;;;;;;;22.94;100.00;99819.13;4992429;28;20228;-76
2022/09/11 05:22:25;;;;;;;4.70;3.22;;;;;;;23.06;100.00;99829.25;4993181;28;20213;-82
2022/09/11 05:24:52;;;;;;;3.92;2.80;;;;;;;22.90;100.00;99830.78;4910951;28;20684;-78
2022/09/11 05:27:18;;;;;;;2.97;2.78;;;;;;;22.88;100.00;99835.25;4992376;28;20674;-77
2022/09/11 05:29:45;;;;;;;3.60;3.30;;;;;;;23.02;100.00;99831.16;4990552;28;20201;-75
2022/09/11 05:32:12;;;;;;;12.95;3.63;;;;;;;23.07;100.00;99831.84;4993055;28;20232;-76
2022/09/11 05:34:40;;;;;;;8.45;3.10;;;;;;;22.92;100.00;99821.00;4993373;28;20285;-78
2022/09/11 05:37:07;;;;;;;3.53;2.90;;;;;;;22.85;100.00;99830.97;4992885;28;20205;-83
2022/09/11 05:39:34;;;;;;;3.10;2.90;;;;;;;22.92;100.00;99831.56;4993562;28;20221;-76
2022/09/11 05:42:00;;;;;;;5.07;3.20;;;;;;;23.00;100.00;99829.50;4992810;28;20732;-77
2022/09/11 05:44:29;;;;;;;5.03;2.92;;;;;;;22.92;100.00;99827.16;4992224;28;20584;-77
2022/09/11 05:46:57;;;;;;;6.35;2.90;;;;;;;23.07;100.00;99839.78;4992053;28;20205;-77
2022/09/11 05:49:24;;;;;;;3.15;2.90;;;;;;;23.06;100.00;99835.41;4992114;28;20202;-76
2022/09/11 05:51:52;;;;;;;3.13;2.50;;;;;;;23.26;100.00;99839.88;4990863;28;20312;-77
2022/09/11 05:54:19;;;;;;;5.40;2.97;;;;;;;23.23;100.00;99832.94;4982587;28;20205;-76
2022/09/11 05:56:46;;;;;;;2.78;2.53;;;;;;;23.26;100.00;99833.75;4989859;28;20202;-77
2022/09/11 05:59:16;;;;;;;2.95;2.70;;;;;;;23.23;100.00;99811.78;4992812;28;20221;-77
2022/09/11 06:01:43;;;;;;;4.97;3.10;;;;;;;23.55;100.00;99841.34;4957777;28;20213;-76
2022/09/11 06:04:11;;;;;;;6.90;3.00;;;;;;;23.53;100.00;99835.28;4991768;28;20662;-74
2022/09/11 06:06:38;;;;;;;3.58;3.10;;;;;;;23.71;100.00;99834.50;4990625;28;20198;-75
2022/09/11 06:09:06;;;;;;;3.35;2.70;;;;;;;23.81;100.00;99841.13;4949765;28;1245183;-76
2022/09/11 06:11:33;;;;;;;7.75;2.05;;;;;;;23.44;100.00;99840.94;4993150;28;20261;-74
2022/09/11 06:14:00;;;;;;;4.03;2.58;;;;;;;23.51;100.00;99834.47;4992365;28;20308;-75
2022/09/11 06:16:30;;;;;;;2.75;2.55;;;;;;;23.61;100.00;99822.59;4992924;28;20634;-75
2022/09/11 06:18:57;;;;;;;2.45;2.25;;;;;;;23.66;100.00;99815.28;4992691;28;20271;-75
2022/09/11 06:21:26;;;;;;;2.45;2.35;;;;;;;23.86;100.00;99827.69;4992493;28;20209;-75
2022/09/11 06:23:53;;;;;;;2.97;2.53;;;;;;;23.84;100.00;99800.41;4992277;28;20202;-74
2022/09/11 06:26:23;;;;;;;2.47;2.28;;;;;;;23.77;100.00;99798.94;4992214;28;20209;-75
2022/09/11 06:28:50;;;;;;;5.13;2.60;;;;;;;24.13;100.00;99832.69;4993089;28;20216;-75
2022/09/11 06:31:20;;;;;;;2.70;2.50;;;;;;;24.20;100.00;99806.75;4992755;28;20252;-75
2022/09/11 06:33:47;;;;;;;7.88;2.50;;;;;;;24.22;100.00;99835.84;4992470;28;20576;-74
2022/09/11 06:36:16;;;;;;;4.38;2.53;;;;;;;24.39;97.79;99843.91;4992885;28;20272;-74
2022/09/11 06:38:44;;;;;;;6.95;2.80;;;;;;;24.02;97.84;99824.31;4974453;28;20213;-75
2022/09/11 06:41:13;;;;;;;13.57;2.78;;;;;;;24.41;98.41;99842.03;4974921;28;20284;-80
2022/09/11 06:43:43;;;;;;;2.33;1.92;;;;;;;24.46;96.37;99829.44;4992217;28;20205;-75
2022/09/11 06:46:12;;;;;;;2.35;1.90;;;;;;;24.42;94.88;99833.16;4957341;28;20210;-74
2022/09/11 06:48:39;;;;;;;2.30;2.13;;;;;;;24.46;95.08;99840.03;4991894;28;20292;-74
2022/09/11 06:51:07;;;;;;;4.47;2.10;;;;;;;24.25;93.54;99825.13;4981835;28;20295;-75
2022/09/11 06:53:34;;;;;;;3.50;2.20;;;;;;;24.40;93.44;99829.72;4991504;28;20209;-78
2022/09/11 06:56:02;;;;;;;2.50;2.30;;;;;;;24.43;93.09;99840.19;4982802;28;20216;-76
2022/09/11 06:58:29;;;;;;;2.80;2.13;;;;;;;24.58;91.93;99844.75;4992280;28;20201;-75
2022/09/11 07:01:02;;;;;;;5.10;2.15;;;;;;;24.83;90.50;99839.22;4992174;28;20197;-77
2022/09/11 07:03:29;;;;;;;3.05;1.88;;;;;;;24.39;91.81;99844.75;4992652;28;20268;-76
2022/09/11 07:05:55;;;;;;;1.70;1.60;;;;;;;24.47;90.97;99847.06;4992390;28;20201;-77
2022/09/11 07:08:22;;;;;;;3.25;2.60;;;;;;;24.45;90.92;99846.25;4973988;28;20225;-75
2022/09/11 07:10:49;;;;;;;2.35;2.10;;;;;;;24.54;90.47;99822.00;4991772;28;20205;-74
2022/09/11 07:13:16;;;;;;;2.30;2.10;;;;;;;24.72;90.38;99841.50;4992166;28;20759;-75
2022/09/11 07:15:43;;;;;;;3.67;2.42;;;;;;;24.68;91.68;99840.78;4992502;28;20697;-75
2022/09/11 07:18:11;;;;;;;5.78;2.28;;;;;;;24.98;90.02;99852.63;4991717;28;20679;-75
2022/09/11 07:20:40;;;;;;;2.47;2.00;;;;;;;24.96;88.66;99849.19;4992236;28;20721;-77
2022/09/11 07:23:07;;;;;;;3.10;1.98;;;;;;;24.90;87.85;99846.81;4989967;28;20209;-75
2022/09/11 07:25:37;;;;;;;1.95;1.75;;;;;;;24.86;87.68;99841.75;4992182;28;20242;-75
2022/09/11 07:28:04;;;;;;;2.58;2.38;;;;;;;25.23;86.82;99827.53;4988717;28;20293;-71
2022/09/11 07:30:32;;;;;;;2.88;2.10;;;;;;;25.08;84.76;99835.31;4989505;28;20217;-75
2022/09/11 07:32:58;;;;;;;3.55;2.15;;;;;;;25.23;85.91;99848.78;4991513;28;20252;-76
2022/09/11 07:35:27;;;;;;;2.22;2.00;;;;;;;25.34;85.43;99852.63;4991279;28;20209;-85
2022/09/11 07:37:53;;;;;;;2.30;1.92;;;;;;;25.36;85.73;99855.22;4991714;28;20205;-82
2022/09/11 07:40:20;;;;;;;3.13;1.92;;;;;;;25.46;85.30;99853.84;4957279;28;20204;-74
2022/09/11 07:42:47;;;;;;;4.13;1.98;;;;;;;25.41;84.86;99838.13;4956703;28;20213;-76
2022/09/11 07:45:14;;;;;;;4.10;2.10;;;;;;;25.40;85.66;99847.00;4957019;28;20994;-77
2022/09/11 07:47:41;;;;;;;4.32;2.05;;;;;;;25.54;84.23;99849.88;4991271;28;20205;-74
2022/09/11 07:50:09;;;;;;;6.63;1.60;;;;;;;25.64;81.62;99856.47;4972953;28;20201;-74
2022/09/11 07:52:37;;;;;;;1.95;1.75;;;;;;;25.55;81.73;99853.41;4990968;28;20273;-73
2022/09/11 07:55:04;;;;;;;2.15;1.95;;;;;;;25.55;82.82;99845.44;4990460;28;20209;-75
2022/09/11 07:57:31;;;;;;;3.67;1.95;;;;;;;25.69;83.35;99852.69;4991661;28;20205;-77
2022/09/11 07:59:58;;;;;;;2.92;1.83;;;;;;;25.63;81.76;99857.41;4991077;28;20201;-77
2022/09/11 08:02:24;;;;;;;4.10;1.90;;;;;;;25.64;81.14;99837.03;4991361;28;20232;-77
2022/09/11 08:04:51;;;;;;;3.60;1.80;;;;;;;26.00;77.55;99853.75;4991113;28;20205;-79
2022/09/11 08:07:18;;;;;;;5.80;1.77;;;;;;;26.01;76.21;99850.13;4955685;28;20694;-80
2022/09/11 08:09:46;;;;;;;4.07;1.90;;;;;;;25.98;75.60;99850.28;4956679;28;20202;-78
2022/09/11 08:12:13;;;;;;;1.60;1.60;;;;;;;25.84;75.03;99831.53;4985659;28;20288;-75
2022/09/11 08:14:39;;;;;;;1.50;1.40;;;;;;;25.98;73.59;99849.41;4990917;28;20226;-76
2022/09/11 08:17:06;;;;;;;1.38;1.30;;;;;;;26.00;72.64;99848.44;4990919;28;20205;-76
2022/09/11 08:19:33;;;;;;;2.25;1.70;;;;;;;26.07;71.75;99852.50;4991270;28;20202;-77
2022/09/11 08:22:00;;;;;;;1.48;1.40;;;;;;;26.27;70.40;99847.94;4990836;28;20260;-76
2022/09/11 08:24:27;;;;;;;1.75;1.65;;;;;;;26.36;70.52;99823.53;4990480;28;20296;-78
2022/09/11 08:26:55;;;;;;;3.25;1.80;;;;;;;26.55;69.11;99845.50;4990499;28;20194;-76
2022/09/11 08:29:23;;;;;;;1.50;1.13;;;;;;;26.38;67.06;99842.91;4980045;28;20308;-76
2022/09/11 08:31:50;;;;;;;4.95;1.77;;;;;;;26.32;67.82;99837.94;4971109;28;22201;-76
2022/09/11 08:34:21;;;;;;;2.85;1.50;;;;;;;26.39;65.28;99823.38;4990646;28;20653;-77
2022/09/11 08:36:48;;;;;;;1.60;1.50;;;;;;;26.56;67.04;99832.16;4990106;28;20211;-76
2022/09/11 08:39:15;;;;;;;3.40;1.10;;;;;;;26.57;65.17;99835.66;4991164;28;20201;-75
2022/09/11 08:41:47;;;;;;;1.60;1.50;;;;;;;26.44;65.67;99837.25;4990633;28;20582;-81
2022/09/11 08:44:22;;;;;;;4.07;1.65;;;;;;;26.49;64.06;99805.97;4990641;28;20214;-78
2022/09/11 08:46:53;;;;;;;1.20;1.10;;;;;;;26.69;61.13;99837.63;4990315;28;20677;-77
2022/09/11 08:49:25;;;;;;;1.50;1.40;;;;;;;26.72;61.51;99826.00;4990980;28;20208;-82
2022/09/11 08:51:55;;;;;;;3.05;1.52;;;;;;;26.92;60.17;99829.28;4990746;28;20212;-86
2022/09/11 08:54:28;;;;;;;2.13;1.90;;;;;;;27.11;62.34;99811.31;4986525;28;20218;-85
2022/09/11 08:57:15;;;;;;;3.38;1.30;;;;;;;27.07;61.43;99823.09;4987500;28;20213;-87
2022/09/11 09:00:02;;;;;;;3.05;1.30;;;;;;;27.05;59.83;99813.47;4989444;28;20296;-79
2022/09/11 09:03:00;;;;;;;1.50;1.40;;;;;;;27.14;60.06;99810.31;4988371;28;20206;-77
2022/09/11 09:05:38;;;;;;;1.40;1.30;;;;;;;27.47;59.51;99812.81;4984129;28;20753;-78
2022/09/11 09:08:20;;;;;;;3.60;1.40;;;;;;;27.65;57.25;99819.72;4989910;28;20240;-79
2022/09/11 09:10:51;;;;;;;1.70;1.60;;;;;;;27.85;55.94;99811.44;4989123;28;20209;-78
2022/09/11 09:13:44;;;;;;;2.97;1.42;;;;;;;27.86;55.17;99805.13;4988424;28;20225;-77
2022/09/11 09:16:28;;;;;;;1.50;1.40;;;;;;;27.74;54.67;99811.22;4989432;28;20654;-78
2022/09/11 09:19:02;;;;;;;1.40;1.10;;;;;;;27.71;55.13;99811.41;4987740;28;20229;-79
2022/09/11 09:21:34;;;;;;;2.72;1.88;;;;;;;27.78;53.60;99794.09;4988517;28;20215;-79
2022/09/11 09:24:05;;;;;;;1.80;1.30;;;;;;;27.85;53.84;99816.75;4993669;28;20213;-77
2022/09/11 09:26:38;;;;;;;2.22;1.30;;;;;;;28.13;54.26;99815.97;4993777;28;20201;-79
2022/09/11 09:29:09;;;;;;;1.55;1.45;;;;;;;28.11;53.44;99823.19;4991833;28;20312;-78
2022/09/11 09:31:40;;;;;;;2.10;1.45;;;;;;;27.99;53.03;99808.78;4987682;28;20662;-79
2022/09/11 09:34:15;;;;;;;1.33;1.23;;;;;;;28.33;49.87;99806.72;4993518;28;20233;-79
2022/09/11 09:36:50;;;;;;;1.52;1.10;;;;;;;28.29;48.18;99798.06;4989341;28;20838;-79
2022/09/11 09:39:18;;;;;;;2.75;1.17;;;;;;;28.07;46.92;99801.19;4992027;28;20628;-79
2022/09/11 09:42:08;;;;;;;1.63;1.35;;;;;;;28.55;47.61;99799.09;4991406;28;20210;-82
2022/09/11 09:44:51;;;;;;;2.13;1.25;;;;;;;28.80;47.09;99795.75;4991732;28;20573;-78
2022/09/11 09:47:19;;;;;;;1.00;1.00;;;;;;;28.83;46.87;99788.41;4992865;28;20212;-80
2022/09/11 09:49:46;;;;;;;1.75;1.35;;;;;;;28.98;46.68;99791.88;4992156;28;20845;-80
2022/09/11 09:52:19;;;;;;;1.20;1.10;;;;;;;29.12;45.68;99797.19;4991966;28;20216;-80
2022/09/11 09:54:54;;;;;;;1.23;1.15;;;;;;;29.32;44.99;99791.44;4991400;28;20205;-80
2022/09/11 09:57:24;;;;;;;4.22;1.10;;;;;;;28.98;43.76;99800.75;4993287;28;20287;-79
2022/09/11 09:59:55;;;;;;;1.27;1.20;;;;;;;28.90;44.28;99784.38;4992684;28;20575;-79
2022/09/11 10:02:40;;;;;;;1.65;1.23;;;;;;;29.16;44.07;99792.50;4992462;28;20214;-78
2022/09/11 10:05:24;;;;;;;5.60;1.30;;;;;;;29.00;44.92;99782.81;5002755;28;20205;-82
2022/09/11 10:07:53;;;;;;;1.13;0.82;;;;;;;28.78;44.05;99784.31;4992730;28;20233;-82
2022/09/11 10:10:28;;;;;;;1.30;1.02;;;;;;;29.09;43.22;99759.13;4992540;28;20206;-83
2022/09/11 10:12:58;;;;;;;3.65;1.25;;;;;;;29.26;41.38;99773.13;4992704;28;20689;-82
2022/09/11 10:15:26;;;;;;;4.13;1.35;;;;;;;29.03;41.85;99774.63;4992418;28;20233;-80
2022/09/11 10:18:21;;;;;;;2.35;1.00;;;;;;;29.46;42.09;99782.47;4992105;28;20213;-80
2022/09/11 10:20:48;;;;;;;1.25;1.20;;;;;;;29.50;41.75;99775.97;4992729;28;20226;-78
2022/09/11 10:23:26;;;;;;;1.65;1.08;;;;;;;29.22;40.43;99766.22;4992483;28;20894;-79
2022/09/11 10:25:53;;;;;;;2.67;1.10;;;;;;;29.57;41.51;99782.63;5004084;28;20194;-85
2022/09/11 10:28:29;;;;;;;1.95;1.63;;;;;;;29.65;39.54;99763.34;4988498;28;20675;-82
2022/09/11 10:30:59;;;;;;;1.27;0.90;;;;;;;29.86;39.73;99770.78;4991997;28;20208;-85
2022/09/11 10:33:30;;;;;;;0.93;0.93;;;;;;;29.42;40.85;99779.16;4973873;28;20229;-88
2022/09/11 10:35:59;;;;;;;2.35;0.90;;;;;;;29.24;40.05;99769.69;4990152;28;20202;-78
2022/09/11 10:38:31;;;;;;;6.35;1.17;;;;;;;29.41;40.35;99776.59;4957536;28;20213;-79
2022/09/11 10:41:06;;;;;;;1.35;1.08;;;;;;;29.59;40.11;99747.75;4992010;28;20209;-81
2022/09/11 10:43:38;;;;;;;5.28;3.60;;;;;;;29.26;39.41;99761.53;4992569;28;20606;-76
2022/09/11 10:46:21;;;;;;;4.78;3.25;;;;;;;29.58;39.98;99762.94;4991536;28;20635;-82
2022/09/11 10:48:54;;;;;;;2.10;1.20;;;;;;;29.74;39.59;99766.28;4992177;28;20205;-84
2022/09/11 10:51:23;;;;;;;1.50;1.40;;;;;;;29.74;39.56;99760.94;4991642;28;20648;-83
2022/09/11 10:54:07;;;;;;;1.35;1.00;;;;;;;29.63;38.83;99728.75;4992231;28;20229;-80
2022/09/11 10:56:44;;;;;;;2.75;1.13;;;;;;;29.84;39.63;99759.38;4992626;28;20229;-80
2022/09/11 10:59:17;;;;;;;1.88;1.17;;;;;;;29.89;39.43;99777.78;4992063;28;20206;-78
2022/09/11 11:01:46;;;;;;;1.00;1.00;;;;;;;29.28;40.04;99749.84;4991338;28;20209;-81
2022/09/11 11:04:15;;;;;;;0.80;0.80;;;;;;;29.31;40.08;99765.66;4957621;28;20209;-80
2022/09/11 11:06:57;;;;;;;4.47;1.15;;;;;;;29.24;40.12;99726.09;4992324;28;20677;-80
2022/09/11 11:09:40;;;;;;;1.92;1.00;;;;;;;29.30;39.51;99747.06;4994624;28;20244;-80
2022/09/11 11:12:24;;;;;;;2.78;1.00;;;;;;;29.25;38.97;99733.16;4995316;28;20209;-77
2022/09/11 11:15:20;;;;;;;0.85;0.85;;;;;;;29.47;39.38;99762.81;4996471;28;20312;-82
2022/09/11 11:17:57;;;;;;;1.33;1.17;;;;;;;29.43;38.80;99755.97;4912940;29;20197;-82
2022/09/11 11:20:37;;;;;;;4.82;1.35;;;;;;;29.38;39.18;99756.28;4912145;29;20647;-80
2022/09/11 11:23:32;;;;;;;6.60;1.30;;;;;;;29.52;39.43;99752.66;4911867;29;20303;-76
2022/09/11 11:26:14;;;;;;;1.10;1.10;;;;;;;29.33;40.23;99712.97;4911646;29;20266;-76
2022/09/11 11:29:07;;;;;;;1.42;1.33;;;;;;;29.37;41.85;99762.56;4906379;29;20217;-79
2022/09/11 11:31:44;;;;;;;4.30;1.35;;;;;;;29.15;42.39;99740.03;4874459;29;20209;-78
2022/09/11 11:34:35;;;;;;;2.75;1.25;;;;;;;29.20;43.12;99752.13;4872894;29;20240;-73
2022/09/11 11:37:10;;;;;;;5.15;1.27;;;;;;;29.27;43.27;99736.59;4873057;29;20689;-78
2022/09/11 11:39:47;;;;;;;1.00;1.00;;;;;;;29.22;42.52;99750.19;4875925;29;20701;-74
2022/09/11 11:42:21;;;;;;;1.15;1.08;;;;;;;29.30;41.88;99747.91;4873848;29;20728;-79
2022/09/11 11:44:53;;;;;;;2.83;0.90;;;;;;;29.05;41.33;99743.31;4875010;29;20241;-78
2022/09/11 11:47:24;;;;;;;1.63;1.00;;;;;;;28.81;40.39;99744.94;4874755;29;20710;-77